sensor_id;sensor_type;location;lat;lon;timestamp;pressure;altitude;pressure_sealevel;temperature;humidity
57847;BME280;43675;50.030;21.952;2023-11-18T00:00:42;98498.90;;;1.59;93.45
57847;BME280;43675;50.030;21.952;2023-11-18T00:03:29;98500.61;;;1.55;93.43
57847;BME280;43675;50.030;21.952;2023-11-18T00:05:59;98503.61;;;1.55;93.48
57847;BME280;43675;50.030;21.952;2023-11-18T00:08:26;98505.86;;;1.51;93.42
57847;BME280;43675;50.030;21.952;2023-11-18T00:10:52;98511.20;;;1.47;93.43
57847;BME280;43675;50.030;21.952;2023-11-18T00:13:22;98510.92;;;1.42;93.53
57847;BME280;43675;50.030;21.952;2023-11-18T00:15:49;98514.39;;;1.41;93.66
57847;BME280;43675;50.030;21.952;2023-11-18T00:18:16;98517.92;;;1.39;93.64
57847;BME280;43675;50.030;21.952;2023-11-18T00:20:43;98518.13;;;1.39;93.81
57847;BME280;43675;50.030;21.952;2023-11-18T00:23:10;98520.46;;;1.39;93.61
57847;BME280;43675;50.030;21.952;2023-11-18T00:25:39;98521.02;;;1.35;93.64
57847;BME280;43675;50.030;21.952;2023-11-18T00:28:06;98524.64;;;1.33;93.47
57847;BME280;43675;50.030;21.952;2023-11-18T00:30:33;98525.59;;;1.32;93.53
57847;BME280;43675;50.030;21.952;2023-11-18T00:33:03;98525.56;;;1.31;93.72
57847;BME280;43675;50.030;21.952;2023-11-18T00:35:32;98525.75;;;1.29;93.73
57847;BME280;43675;50.030;21.952;2023-11-18T00:37:59;98525.67;;;1.26;93.67
57847;BME280;43675;50.030;21.952;2023-11-18T00:40:29;98529.79;;;1.24;93.67
57847;BME280;43675;50.030;21.952;2023-11-18T00:42:57;98527.83;;;1.21;93.75
57847;BME280;43675;50.030;21.952;2023-11-18T00:45:26;98527.30;;;1.21;93.82
57847;BME280;43675;50.030;21.952;2023-11-18T00:47:55;98532.56;;;1.21;93.84
57847;BME280;43675;50.030;21.952;2023-11-18T00:50:26;98536.27;;;1.24;93.98
57847;BME280;43675;50.030;21.952;2023-11-18T00:52:55;98539.80;;;1.29;93.92
57847;BME280;43675;50.030;21.952;2023-11-18T00:55:24;98543.99;;;1.30;93.80
57847;BME280;43675;50.030;21.952;2023-11-18T00:57:52;98545.39;;;1.31;93.76
57847;BME280;43675;50.030;21.952;2023-11-18T01:00:19;98546.50;;;1.36;93.78
57847;BME280;43675;50.030;21.952;2023-11-18T01:02:48;98548.81;;;1.39;93.64
57847;BME280;43675;50.030;21.952;2023-11-18T01:05:18;98551.66;;;1.37;93.58
57847;BME280;43675;50.030;21.952;2023-11-18T01:07:45;98552.58;;;1.35;93.56
57847;BME280;43675;50.030;21.952;2023-11-18T01:10:15;98558.45;;;1.31;93.51
57847;BME280;43675;50.030;21.952;2023-11-18T01:12:44;98556.45;;;1.29;93.58
57847;BME280;43675;50.030;21.952;2023-11-18T01:15:13;98557.54;;;1.27;93.52
57847;BME280;43675;50.030;21.952;2023-11-18T01:17:40;98555.97;;;1.23;93.48
57847;BME280;43675;50.030;21.952;2023-11-18T01:20:07;98559.89;;;1.21;93.52
57847;BME280;43675;50.030;21.952;2023-11-18T01:22:34;98554.02;;;1.18;93.44
57847;BME280;43675;50.030;21.952;2023-11-18T01:25:02;98560.81;;;1.15;93.43
57847;BME280;43675;50.030;21.952;2023-11-18T01:27:29;98561.33;;;1.11;93.36
57847;BME280;43675;50.030;21.952;2023-11-18T01:29:59;98560.81;;;1.07;93.27
57847;BME280;43675;50.030;21.952;2023-11-18T01:32:27;98559.06;;;1.03;93.44
57847;BME280;43675;50.030;21.952;2023-11-18T01:34:57;98559.52;;;1.01;93.49
57847;BME280;43675;50.030;21.952;2023-11-18T01:37:27;98562.41;;;0.99;93.39
57847;BME280;43675;50.030;21.952;2023-11-18T01:39:57;98563.95;;;0.95;93.34
57847;BME280;43675;50.030;21.952;2023-11-18T01:42:24;98561.05;;;0.93;93.40
57847;BME280;43675;50.030;21.952;2023-11-18T01:44:51;98557.31;;;0.91;93.49
57847;BME280;43675;50.030;21.952;2023-11-18T01:47:20;98559.27;;;0.91;93.56
57847;BME280;43675;50.030;21.952;2023-11-18T01:49:52;98562.60;;;0.91;93.63
57847;BME280;43675;50.030;21.952;2023-11-18T01:52:22;98567.12;;;0.94;93.67
57847;BME280;43675;50.030;21.952;2023-11-18T01:54:51;98568.24;;;0.97;93.58
57847;BME280;43675;50.030;21.952;2023-11-18T01:57:23;98572.35;;;0.98;93.64
57847;BME280;43675;50.030;21.952;2023-11-18T01:59:50;98570.63;;;0.97;93.59
57847;BME280;43675;50.030;21.952;2023-11-18T02:02:20;98574.69;;;0.99;93.58
57847;BME280;43675;50.030;21.952;2023-11-18T02:04:47;98579.11;;;0.97;93.53
57847;BME280;43675;50.030;21.952;2023-11-18T02:07:14;98579.73;;;0.96;93.57
57847;BME280;43675;50.030;21.952;2023-11-18T02:09:45;98583.81;;;0.98;93.75
57847;BME280;43675;50.030;21.952;2023-11-18T02:12:32;98585.45;;;1.01;93.80
57847;BME280;43675;50.030;21.952;2023-11-18T02:15:05;98584.23;;;1.02;93.60
57847;BME280;43675;50.030;21.952;2023-11-18T02:17:33;98586.80;;;1.06;93.57
57847;BME280;43675;50.030;21.952;2023-11-18T02:20:00;98585.56;;;1.23;93.46
57847;BME280;43675;50.030;21.952;2023-11-18T02:22:28;98583.45;;;1.36;93.06
57847;BME280;43675;50.030;21.952;2023-11-18T02:24:55;98583.14;;;1.34;92.62
57847;BME280;43675;50.030;21.952;2023-11-18T02:27:25;98585.90;;;1.23;92.61
57847;BME280;43675;50.030;21.952;2023-11-18T02:29:55;98588.47;;;1.16;92.98
57847;BME280;43675;50.030;21.952;2023-11-18T02:32:38;98586.32;;;1.09;93.05
57847;BME280;43675;50.030;21.952;2023-11-18T02:35:29;98586.33;;;1.04;93.05
57847;BME280;43675;50.030;21.952;2023-11-18T02:38:00;98587.23;;;1.00;93.03
57847;BME280;43675;50.030;21.952;2023-11-18T02:40:39;98589.49;;;0.97;93.14
57847;BME280;43675;50.030;21.952;2023-11-18T02:43:09;98591.79;;;0.94;93.23
57847;BME280;43675;50.030;21.952;2023-11-18T02:45:40;98585.17;;;0.93;93.33
57847;BME280;43675;50.030;21.952;2023-11-18T02:48:07;98589.54;;;0.93;93.26
57847;BME280;43675;50.030;21.952;2023-11-18T02:50:34;98587.73;;;1.03;93.19
57847;BME280;43675;50.030;21.952;2023-11-18T02:53:01;98593.30;;;1.01;93.06
57847;BME280;43675;50.030;21.952;2023-11-18T02:55:31;98594.37;;;0.96;93.08
57847;BME280;43675;50.030;21.952;2023-11-18T02:57:58;98592.38;;;0.93;93.14
57847;BME280;43675;50.030;21.952;2023-11-18T03:00:27;98593.09;;;0.91;93.06
57847;BME280;43675;50.030;21.952;2023-11-18T03:02:54;98590.16;;;0.92;93.23
57847;BME280;43675;50.030;21.952;2023-11-18T03:05:21;98589.02;;;1.02;93.09
57847;BME280;43675;50.030;21.952;2023-11-18T03:07:48;98591.60;;;1.14;92.71
57847;BME280;43675;50.030;21.952;2023-11-18T03:10:16;98594.64;;;1.27;92.52
57847;BME280;43675;50.030;21.952;2023-11-18T03:12:42;98596.04;;;1.27;92.32
57847;BME280;43675;50.030;21.952;2023-11-18T03:15:09;98602.74;;;1.22;92.43
57847;BME280;43675;50.030;21.952;2023-11-18T03:17:36;98604.48;;;1.14;92.57
57847;BME280;43675;50.030;21.952;2023-11-18T03:20:07;98608.92;;;1.09;92.55
57847;BME280;43675;50.030;21.952;2023-11-18T03:22:34;98607.61;;;1.04;92.82
57847;BME280;43675;50.030;21.952;2023-11-18T03:25:03;98612.71;;;1.03;92.84
57847;BME280;43675;50.030;21.952;2023-11-18T03:27:30;98622.27;;;1.00;92.94
57847;BME280;43675;50.030;21.952;2023-11-18T03:30:00;98622.83;;;0.99;93.05
57847;BME280;43675;50.030;21.952;2023-11-18T03:32:36;98623.27;;;0.98;93.14
57847;BME280;43675;50.030;21.952;2023-11-18T03:35:07;98624.37;;;0.97;93.12
57847;BME280;43675;50.030;21.952;2023-11-18T03:37:36;98623.98;;;0.99;93.18
57847;BME280;43675;50.030;21.952;2023-11-18T03:40:05;98626.20;;;1.00;93.08
57847;BME280;43675;50.030;21.952;2023-11-18T03:42:34;98629.65;;;1.01;93.13
57847;BME280;43675;50.030;21.952;2023-11-18T03:45:01;98629.27;;;1.03;93.21
57847;BME280;43675;50.030;21.952;2023-11-18T03:47:28;98627.44;;;1.03;93.18
57847;BME280;43675;50.030;21.952;2023-11-18T03:50:04;98629.10;;;1.03;93.07
57847;BME280;43675;50.030;21.952;2023-11-18T03:52:31;98628.34;;;1.02;93.08
57847;BME280;43675;50.030;21.952;2023-11-18T03:54:58;98630.06;;;1.04;93.17
57847;BME280;43675;50.030;21.952;2023-11-18T03:57:25;98631.24;;;1.04;93.18
57847;BME280;43675;50.030;21.952;2023-11-18T03:59:51;98633.70;;;1.09;93.22
57847;BME280;43675;50.030;21.952;2023-11-18T04:02:21;98638.38;;;1.10;92.90
57847;BME280;43675;50.030;21.952;2023-11-18T04:04:48;98641.66;;;1.09;92.96
57847;BME280;43675;50.030;21.952;2023-11-18T04:07:15;98637.48;;;1.08;93.07
57847;BME280;43675;50.030;21.952;2023-11-18T04:09:43;98638.33;;;1.09;93.14
57847;BME280;43675;50.030;21.952;2023-11-18T04:12:10;98640.02;;;1.10;93.24
57847;BME280;43675;50.030;21.952;2023-11-18T04:14:37;98638.66;;;1.11;93.13
57847;BME280;43675;50.030;21.952;2023-11-18T04:17:14;98638.92;;;1.10;93.15
57847;BME280;43675;50.030;21.952;2023-11-18T04:19:41;98641.11;;;1.07;93.19
57847;BME280;43675;50.030;21.952;2023-11-18T04:22:10;98644.11;;;1.06;93.15
57847;BME280;43675;50.030;21.952;2023-11-18T04:24:42;98643.61;;;1.04;93.11
57847;BME280;43675;50.030;21.952;2023-11-18T04:27:12;98641.52;;;1.03;93.11
57847;BME280;43675;50.030;21.952;2023-11-18T04:29:45;98643.23;;;1.04;93.34
57847;BME280;43675;50.030;21.952;2023-11-18T04:32:11;98642.98;;;1.05;93.23
57847;BME280;43675;50.030;21.952;2023-11-18T04:34:39;98643.31;;;1.07;93.30
57847;BME280;43675;50.030;21.952;2023-11-18T04:37:09;98650.15;;;1.09;93.44
57847;BME280;43675;50.030;21.952;2023-11-18T04:39:39;98645.34;;;1.09;93.35
57847;BME280;43675;50.030;21.952;2023-11-18T04:42:08;98650.85;;;1.10;93.37
57847;BME280;43675;50.030;21.952;2023-11-18T04:44:38;98647.11;;;1.11;93.24
57847;BME280;43675;50.030;21.952;2023-11-18T04:47:05;98643.55;;;1.11;93.27
57847;BME280;43675;50.030;21.952;2023-11-18T04:49:31;98644.67;;;1.12;93.30
57847;BME280;43675;50.030;21.952;2023-11-18T04:51:58;98645.05;;;1.12;93.37
57847;BME280;43675;50.030;21.952;2023-11-18T04:54:25;98646.08;;;1.14;93.17
57847;BME280;43675;50.030;21.952;2023-11-18T04:56:52;98649.67;;;1.13;93.30
57847;BME280;43675;50.030;21.952;2023-11-18T04:59:22;98652.96;;;1.12;93.21
57847;BME280;43675;50.030;21.952;2023-11-18T05:01:49;98658.05;;;1.11;93.12
57847;BME280;43675;50.030;21.952;2023-11-18T05:04:15;98655.45;;;1.11;93.13
57847;BME280;43675;50.030;21.952;2023-11-18T05:06:42;98658.45;;;1.10;93.09
57847;BME280;43675;50.030;21.952;2023-11-18T05:09:15;98658.48;;;1.10;93.22
57847;BME280;43675;50.030;21.952;2023-11-18T05:11:42;98659.08;;;1.09;93.13
57847;BME280;43675;50.030;21.952;2023-11-18T05:14:09;98661.16;;;1.06;93.06
57847;BME280;43675;50.030;21.952;2023-11-18T05:16:35;98659.63;;;1.01;93.00
57847;BME280;43675;50.030;21.952;2023-11-18T05:19:02;98659.74;;;0.98;93.09
57847;BME280;43675;50.030;21.952;2023-11-18T05:21:29;98658.70;;;0.94;93.09
57847;BME280;43675;50.030;21.952;2023-11-18T05:23:56;98661.11;;;0.90;93.15
57847;BME280;43675;50.030;21.952;2023-11-18T05:26:23;98663.30;;;0.90;93.16
57847;BME280;43675;50.030;21.952;2023-11-18T05:28:50;98662.39;;;0.88;93.15
57847;BME280;43675;50.030;21.952;2023-11-18T05:31:16;98669.12;;;0.86;93.07
57847;BME280;43675;50.030;21.952;2023-11-18T05:33:46;98672.23;;;0.84;93.14
57847;BME280;43675;50.030;21.952;2023-11-18T05:36:13;98675.83;;;0.83;93.30
57847;BME280;43675;50.030;21.952;2023-11-18T05:38:42;98679.02;;;0.82;93.29
57847;BME280;43675;50.030;21.952;2023-11-18T05:41:09;98678.77;;;0.82;93.22
57847;BME280;43675;50.030;21.952;2023-11-18T05:43:39;98680.77;;;0.81;93.18
57847;BME280;43675;50.030;21.952;2023-11-18T05:46:07;98685.55;;;0.81;93.22
57847;BME280;43675;50.030;21.952;2023-11-18T05:48:34;98692.48;;;0.83;93.25
57847;BME280;43675;50.030;21.952;2023-11-18T05:51:00;98694.01;;;0.99;93.28
57847;BME280;43675;50.030;21.952;2023-11-18T05:53:27;98694.86;;;0.99;92.79
57847;BME280;43675;50.030;21.952;2023-11-18T05:55:54;98699.67;;;0.96;92.79
57847;BME280;43675;50.030;21.952;2023-11-18T05:58:20;98702.79;;;0.93;92.75
57847;BME280;43675;50.030;21.952;2023-11-18T06:00:47;98701.63;;;0.92;92.82
57847;BME280;43675;50.030;21.952;2023-11-18T06:03:14;98701.43;;;0.93;92.89
57847;BME280;43675;50.030;21.952;2023-11-18T06:05:40;98702.94;;;0.91;92.74
57847;BME280;43675;50.030;21.952;2023-11-18T06:08:07;98708.92;;;0.88;92.70
57847;BME280;43675;50.030;21.952;2023-11-18T06:10:34;98717.37;;;0.83;92.56
57847;BME280;43675;50.030;21.952;2023-11-18T06:13:00;98720.35;;;0.76;92.77
57847;BME280;43675;50.030;21.952;2023-11-18T06:15:30;98718.94;;;0.74;92.90
57847;BME280;43675;50.030;21.952;2023-11-18T06:17:56;98721.71;;;0.75;92.92
57847;BME280;43675;50.030;21.952;2023-11-18T06:20:23;98723.10;;;0.75;92.85
57847;BME280;43675;50.030;21.952;2023-11-18T06:22:50;98726.85;;;0.76;92.94
57847;BME280;43675;50.030;21.952;2023-11-18T06:25:16;98733.02;;;0.80;93.02
57847;BME280;43675;50.030;21.952;2023-11-18T06:27:43;98733.15;;;0.80;92.93
57847;BME280;43675;50.030;21.952;2023-11-18T06:30:11;98741.90;;;0.79;92.87
57847;BME280;43675;50.030;21.952;2023-11-18T06:32:38;98738.70;;;0.80;92.84
57847;BME280;43675;50.030;21.952;2023-11-18T06:35:05;98745.52;;;0.80;92.83
57847;BME280;43675;50.030;21.952;2023-11-18T06:37:33;98747.62;;;0.80;92.90
57847;BME280;43675;50.030;21.952;2023-11-18T06:39:59;98748.64;;;0.80;92.86
57847;BME280;43675;50.030;21.952;2023-11-18T06:42:26;98750.61;;;0.78;92.86
57847;BME280;43675;50.030;21.952;2023-11-18T06:44:53;98759.22;;;0.77;92.80
57847;BME280;43675;50.030;21.952;2023-11-18T06:47:20;98762.09;;;0.76;92.80
57847;BME280;43675;50.030;21.952;2023-11-18T06:49:47;98760.35;;;0.78;92.92
57847;BME280;43675;50.030;21.952;2023-11-18T06:52:13;98762.11;;;0.78;92.66
57847;BME280;43675;50.030;21.952;2023-11-18T06:54:41;98754.02;;;0.88;92.50
57847;BME280;43675;50.030;21.952;2023-11-18T06:57:07;98760.23;;;1.02;92.24
57847;BME280;43675;50.030;21.952;2023-11-18T06:59:34;98767.54;;;1.03;91.84
57847;BME280;43675;50.030;21.952;2023-11-18T07:02:01;98772.80;;;0.95;91.81
57847;BME280;43675;50.030;21.952;2023-11-18T07:04:27;98778.87;;;0.88;92.12
57847;BME280;43675;50.030;21.952;2023-11-18T07:06:54;98788.15;;;0.85;92.22
57847;BME280;43675;50.030;21.952;2023-11-18T07:09:21;98785.90;;;0.85;92.40
57847;BME280;43675;50.030;21.952;2023-11-18T07:11:48;98790.75;;;0.84;92.41
57847;BME280;43675;50.030;21.952;2023-11-18T07:14:14;98788.04;;;0.83;92.31
57847;BME280;43675;50.030;21.952;2023-11-18T07:16:42;98794.73;;;0.88;92.39
57847;BME280;43675;50.030;21.952;2023-11-18T07:19:09;98797.80;;;0.89;92.21
57847;BME280;43675;50.030;21.952;2023-11-18T07:21:36;98794.98;;;0.85;92.34
57847;BME280;43675;50.030;21.952;2023-11-18T07:24:03;98798.66;;;0.82;92.31
57847;BME280;43675;50.030;21.952;2023-11-18T07:26:32;98797.65;;;0.80;92.50
57847;BME280;43675;50.030;21.952;2023-11-18T07:28:59;98801.80;;;0.79;92.44
57847;BME280;43675;50.030;21.952;2023-11-18T07:31:26;98802.69;;;0.79;92.64
57847;BME280;43675;50.030;21.952;2023-11-18T07:33:53;98807.10;;;0.81;92.65
57847;BME280;43675;50.030;21.952;2023-11-18T07:36:20;98810.33;;;0.84;92.68
57847;BME280;43675;50.030;21.952;2023-11-18T07:38:49;98814.92;;;0.83;92.68
57847;BME280;43675;50.030;21.952;2023-11-18T07:41:16;98818.84;;;0.86;92.62
57847;BME280;43675;50.030;21.952;2023-11-18T07:43:44;98818.28;;;0.88;92.61
57847;BME280;43675;50.030;21.952;2023-11-18T07:46:11;98810.40;;;0.90;92.42
57847;BME280;43675;50.030;21.952;2023-11-18T07:48:37;98807.78;;;1.02;92.37
57847;BME280;43675;50.030;21.952;2023-11-18T07:51:04;98815.77;;;1.04;92.13
57847;BME280;43675;50.030;21.952;2023-11-18T07:53:31;98814.30;;;1.01;92.05
57847;BME280;43675;50.030;21.952;2023-11-18T07:55:58;98818.57;;;1.02;92.19
57847;BME280;43675;50.030;21.952;2023-11-18T07:58:24;98814.91;;;1.02;92.31
57847;BME280;43675;50.030;21.952;2023-11-18T08:00:51;98816.02;;;0.98;92.15
57847;BME280;43675;50.030;21.952;2023-11-18T08:03:20;98817.32;;;0.95;92.32
57847;BME280;43675;50.030;21.952;2023-11-18T08:05:47;98820.14;;;0.97;92.40
57847;BME280;43675;50.030;21.952;2023-11-18T08:08:15;98825.31;;;1.02;92.50
57847;BME280;43675;50.030;21.952;2023-11-18T08:10:42;98829.80;;;1.06;92.52
57847;BME280;43675;50.030;21.952;2023-11-18T08:13:11;98825.69;;;1.10;92.46
57847;BME280;43675;50.030;21.952;2023-11-18T08:15:39;98832.80;;;1.11;92.25
57847;BME280;43675;50.030;21.952;2023-11-18T08:18:07;98829.63;;;1.11;92.31
57847;BME280;43675;50.030;21.952;2023-11-18T08:20:37;98833.60;;;1.11;92.04
57847;BME280;43675;50.030;21.952;2023-11-18T08:23:04;98838.96;;;1.13;92.05
57847;BME280;43675;50.030;21.952;2023-11-18T08:25:40;98838.61;;;1.11;92.06
57847;BME280;43675;50.030;21.952;2023-11-18T08:28:08;98840.28;;;1.09;91.91
57847;BME280;43675;50.030;21.952;2023-11-18T08:30:37;98844.47;;;1.04;91.70
57847;BME280;43675;50.030;21.952;2023-11-18T08:33:07;98847.72;;;0.99;91.76
57847;BME280;43675;50.030;21.952;2023-11-18T08:35:34;98853.80;;;0.93;91.68
57847;BME280;43675;50.030;21.952;2023-11-18T08:38:01;98859.26;;;0.87;91.65
57847;BME280;43675;50.030;21.952;2023-11-18T08:40:28;98858.31;;;0.99;91.58
57847;BME280;43675;50.030;21.952;2023-11-18T08:42:55;98863.36;;;1.14;91.34
57847;BME280;43675;50.030;21.952;2023-11-18T08:45:23;98864.45;;;1.14;91.00
57847;BME280;43675;50.030;21.952;2023-11-18T08:47:50;98865.46;;;1.03;91.10
57847;BME280;43675;50.030;21.952;2023-11-18T08:50:17;98861.73;;;1.13;91.25
57847;BME280;43675;50.030;21.952;2023-11-18T08:52:45;98860.99;;;1.20;91.17
57847;BME280;43675;50.030;21.952;2023-11-18T08:55:15;98864.56;;;1.19;91.34
57847;BME280;43675;50.030;21.952;2023-11-18T08:57:45;98865.06;;;1.30;91.34
57847;BME280;43675;50.030;21.952;2023-11-18T09:00:16;98868.84;;;1.30;91.21
57847;BME280;43675;50.030;21.952;2023-11-18T09:02:46;98871.42;;;1.25;91.24
57847;BME280;43675;50.030;21.952;2023-11-18T09:05:18;98873.71;;;1.22;91.33
57847;BME280;43675;50.030;21.952;2023-11-18T09:07:48;98874.20;;;1.20;91.44
57847;BME280;43675;50.030;21.952;2023-11-18T09:10:18;98879.29;;;1.20;91.39
57847;BME280;43675;50.030;21.952;2023-11-18T09:12:50;98878.31;;;1.19;91.36
57847;BME280;43675;50.030;21.952;2023-11-18T09:15:23;98884.08;;;1.20;91.32
57847;BME280;43675;50.030;21.952;2023-11-18T09:17:52;98889.58;;;1.18;91.20
57847;BME280;43675;50.030;21.952;2023-11-18T09:20:23;98890.39;;;1.20;91.39
57847;BME280;43675;50.030;21.952;2023-11-18T09:22:54;98884.80;;;1.27;91.55
57847;BME280;43675;50.030;21.952;2023-11-18T09:25:27;98882.77;;;1.31;91.47
57847;BME280;43675;50.030;21.952;2023-11-18T09:27:54;98881.87;;;1.35;91.37
57847;BME280;43675;50.030;21.952;2023-11-18T09:30:23;98880.11;;;1.37;91.20
57847;BME280;43675;50.030;21.952;2023-11-18T09:32:53;98886.90;;;1.32;90.96
57847;BME280;43675;50.030;21.952;2023-11-18T09:35:40;98886.89;;;1.25;90.81
57847;BME280;43675;50.030;21.952;2023-11-18T09:38:16;98887.95;;;1.22;91.19
57847;BME280;43675;50.030;21.952;2023-11-18T09:40:47;98886.91;;;1.20;91.06
57847;BME280;43675;50.030;21.952;2023-11-18T09:43:18;98889.17;;;1.19;91.05
57847;BME280;43675;50.030;21.952;2023-11-18T09:46:06;98892.28;;;1.19;91.26
57847;BME280;43675;50.030;21.952;2023-11-18T09:48:35;98890.30;;;1.21;91.28
57847;BME280;43675;50.030;21.952;2023-11-18T09:51:03;98892.65;;;1.22;90.97
57847;BME280;43675;50.030;21.952;2023-11-18T09:53:37;98890.82;;;1.18;90.85
57847;BME280;43675;50.030;21.952;2023-11-18T09:56:07;98893.62;;;1.11;90.87
57847;BME280;43675;50.030;21.952;2023-11-18T09:58:59;98889.27;;;1.12;90.98
57847;BME280;43675;50.030;21.952;2023-11-18T10:01:35;98887.48;;;1.18;91.24
57847;BME280;43675;50.030;21.952;2023-11-18T10:04:14;98890.66;;;1.23;91.23
57847;BME280;43675;50.030;21.952;2023-11-18T10:06:48;98894.48;;;1.25;90.93
57847;BME280;43675;50.030;21.952;2023-11-18T10:09:18;98892.00;;;1.34;90.92
57847;BME280;43675;50.030;21.952;2023-11-18T10:11:53;98888.73;;;1.37;90.80
57847;BME280;43675;50.030;21.952;2023-11-18T10:14:27;98886.66;;;1.43;90.84
57847;BME280;43675;50.030;21.952;2023-11-18T10:16:56;98887.62;;;1.48;90.82
57847;BME280;43675;50.030;21.952;2023-11-18T10:19:49;98893.84;;;1.57;90.62
57847;BME280;43675;50.030;21.952;2023-11-18T10:22:33;98898.70;;;1.66;90.24
57847;BME280;43675;50.030;21.952;2023-11-18T10:25:02;98903.02;;;1.60;89.98
57847;BME280;43675;50.030;21.952;2023-11-18T10:27:35;98903.95;;;1.56;90.05
57847;BME280;43675;50.030;21.952;2023-11-18T10:30:12;98906.59;;;1.56;90.21
57847;BME280;43675;50.030;21.952;2023-11-18T10:32:43;98909.70;;;1.55;89.95
57847;BME280;43675;50.030;21.952;2023-11-18T10:35:22;98911.05;;;1.52;89.84
57847;BME280;43675;50.030;21.952;2023-11-18T10:37:51;98909.49;;;1.50;89.74
57847;BME280;43675;50.030;21.952;2023-11-18T10:40:22;98916.18;;;1.50;89.62
57847;BME280;43675;50.030;21.952;2023-11-18T10:43:10;98915.66;;;1.47;89.48
57847;BME280;43675;50.030;21.952;2023-11-18T10:45:46;98913.64;;;1.49;89.65
57847;BME280;43675;50.030;21.952;2023-11-18T10:48:21;98915.88;;;1.58;89.57
57847;BME280;43675;50.030;21.952;2023-11-18T10:50:53;98920.52;;;1.65;89.49
57847;BME280;43675;50.030;21.952;2023-11-18T10:53:26;98923.03;;;1.70;89.35
57847;BME280;43675;50.030;21.952;2023-11-18T10:56:05;98926.88;;;1.68;89.46
57847;BME280;43675;50.030;21.952;2023-11-18T10:58:40;98931.01;;;1.67;89.44
57847;BME280;43675;50.030;21.952;2023-11-18T11:01:35;98932.27;;;1.69;89.45
57847;BME280;43675;50.030;21.952;2023-11-18T11:04:23;98937.52;;;1.66;89.09
57847;BME280;43675;50.030;21.952;2023-11-18T11:06:50;98943.56;;;1.60;89.25
57847;BME280;43675;50.030;21.952;2023-11-18T11:09:18;98951.83;;;1.67;88.86
57847;BME280;43675;50.030;21.952;2023-11-18T11:11:49;98952.98;;;1.75;88.55
57847;BME280;43675;50.030;21.952;2023-11-18T11:14:16;98952.63;;;1.84;88.54
57847;BME280;43675;50.030;21.952;2023-11-18T11:16:52;98951.80;;;1.88;88.40
57847;BME280;43675;50.030;21.952;2023-11-18T11:19:36;98950.98;;;1.83;88.29
57847;BME280;43675;50.030;21.952;2023-11-18T11:22:25;98954.91;;;1.75;88.44
57847;BME280;43675;50.030;21.952;2023-11-18T11:25:28;98952.56;;;1.69;88.58
57847;BME280;43675;50.030;21.952;2023-11-18T11:28:20;98954.98;;;1.64;88.66
57847;BME280;43675;50.030;21.952;2023-11-18T11:34:09;98955.35;;;1.62;88.98
57847;BME280;43675;50.030;21.952;2023-11-18T11:36:59;98959.54;;;1.71;89.02
57847;BME280;43675;50.030;21.952;2023-11-18T11:39:31;98962.66;;;1.72;88.88
57847;BME280;43675;50.030;21.952;2023-11-18T11:42:07;98968.09;;;1.67;88.62
57847;BME280;43675;50.030;21.952;2023-11-18T11:44:40;98969.88;;;1.58;88.67
57847;BME280;43675;50.030;21.952;2023-11-18T11:47:10;98966.88;;;1.54;88.83
57847;BME280;43675;50.030;21.952;2023-11-18T11:49:44;98968.64;;;1.61;89.12
57847;BME280;43675;50.030;21.952;2023-11-18T11:52:37;98976.47;;;1.75;88.95
57847;BME280;43675;50.030;21.952;2023-11-18T11:57:58;98980.33;;;1.77;88.65
57847;BME280;43675;50.030;21.952;2023-11-18T12:00:27;98981.06;;;1.77;88.62
57847;BME280;43675;50.030;21.952;2023-11-18T12:03:12;98984.71;;;1.72;88.65
57847;BME280;43675;50.030;21.952;2023-11-18T12:05:54;98988.48;;;1.66;88.58
57847;BME280;43675;50.030;21.952;2023-11-18T12:08:28;98993.44;;;1.64;88.81
57847;BME280;43675;50.030;21.952;2023-11-18T12:11:01;98995.20;;;1.62;88.86
57847;BME280;43675;50.030;21.952;2023-11-18T12:13:40;98995.30;;;1.56;88.82
57847;BME280;43675;50.030;21.952;2023-11-18T12:19:40;99002.33;;;1.51;88.90
57847;BME280;43675;50.030;21.952;2023-11-18T12:22:16;99004.25;;;1.46;88.65
57847;BME280;43675;50.030;21.952;2023-11-18T12:30:40;99013.16;;;1.28;89.07
57847;BME280;43675;50.030;21.952;2023-11-18T12:33:11;99014.71;;;1.32;89.49
57847;BME280;43675;50.030;21.952;2023-11-18T12:36:15;99023.36;;;1.39;89.50
57847;BME280;43675;50.030;21.952;2023-11-18T12:43:01;99029.34;;;1.49;89.49
57847;BME280;43675;50.030;21.952;2023-11-18T12:48:35;99045.77;;;1.54;89.42
57847;BME280;43675;50.030;21.952;2023-11-18T12:51:04;99044.92;;;1.59;89.22
57847;BME280;43675;50.030;21.952;2023-11-18T12:53:34;99052.73;;;1.64;88.87
57847;BME280;43675;50.030;21.952;2023-11-18T12:56:04;99054.11;;;1.55;88.83
57847;BME280;43675;50.030;21.952;2023-11-18T12:58:51;99050.84;;;1.49;88.93
57847;BME280;43675;50.030;21.952;2023-11-18T13:01:25;99051.98;;;1.48;88.90
57847;BME280;43675;50.030;21.952;2023-11-18T13:03:52;99057.51;;;1.49;89.08
57847;BME280;43675;50.030;21.952;2023-11-18T13:06:22;99062.38;;;1.63;88.94
57847;BME280;43675;50.030;21.952;2023-11-18T13:08:49;99068.23;;;1.64;88.81
57847;BME280;43675;50.030;21.952;2023-11-18T13:11:20;99071.30;;;1.63;88.88
57847;BME280;43675;50.030;21.952;2023-11-18T13:13:48;99072.50;;;1.73;88.79
57847;BME280;43675;50.030;21.952;2023-11-18T13:16:15;99071.93;;;1.78;88.39
57847;BME280;43675;50.030;21.952;2023-11-18T13:18:45;99079.78;;;1.65;88.25
57847;BME280;43675;50.030;21.952;2023-11-18T13:21:18;99086.50;;;1.54;88.50
57847;BME280;43675;50.030;21.952;2023-11-18T13:23:52;99087.10;;;1.57;88.29
57847;BME280;43675;50.030;21.952;2023-11-18T13:26:25;99092.10;;;1.50;88.50
57847;BME280;43675;50.030;21.952;2023-11-18T13:29:12;99092.35;;;1.46;88.74
57847;BME280;43675;50.030;21.952;2023-11-18T13:31:51;99091.26;;;1.43;88.63
57847;BME280;43675;50.030;21.952;2023-11-18T13:34:38;99096.08;;;1.44;88.76
57847;BME280;43675;50.030;21.952;2023-11-18T13:37:16;99094.20;;;1.45;88.73
57847;BME280;43675;50.030;21.952;2023-11-18T13:40:04;99095.06;;;1.46;88.72